MNL weather

Ninoy Aquino International Airport
Manila, Philippines

Public forecast

Using degrees Celsius for public forecast. Weather courtesy of forecast.io.

METAR (pilot weather report)

Retrieved 2017/12/10 22:00 UTC (53 minutes ago):

RPLL 102200Z VRB01KT 9999 SCT023 SCT100 26/26 Q1010 NOSIG RMK A2983

TAF (pilot weather forecast)

Retrieved 2017/12/10 18:00 UTC (5 hours ago):

TAF RPLL 101700Z 1018/1124 10008KT 9999 FEW025 SCT100 BKN250 TX32/1106Z TN25/1021Z TEMPO 1018/1024 VRB03KT FEW023 BKN100 TEMPO 1103/1109 11013KT FEW023CB SCT025 BKN250